Huvudsida
METAR-TAF:

METAR-TAF

Flygplatser :

Trondheims flygplats. Værnes

Trondheim, Norge

latitud: 63-28N, longitud: 010-56E, höjd: 1 m

Aktuellt väderrapport

Denna rapport gjordes för 12 minuter sedan, klockan 00:50 UTC
Vind 5 kt från ost/sydost
Temperatur 9°C
Fuktighet 71%
Tryck 1024 hPa
Sikt 10 km eller mer
Få moln på en höjd av 2500 ft
Brutna moln på en höjd av 7000 ft

METAR: ENVA 210050Z 12005KT 9999 FEW025 BKN070 09/04 Q1024 RMK WIND 670FT VRB01KT

Tid: 03:02 (01:02 UTC)

Väderprognos

Prognos gäller från 21 kl. 00 UTC till 21 kl. 24 UTC
Vind 7 kt varierande vindriktning
Sikt 10 km eller mer
Spridda moln på en höjd av 2000 ft
Brutna moln på en höjd av 4000 ft
lätt regn
Sannolikhet 30% :
Temporärt
från 21 kl. 00 UTC till 21 kl. 18 UTC
Sikt: 4000 m
Brutna moln på en höjd av 1200 ft
regn, duggregn

TAF: ENVA 2100/2124 VRB07KT 9999 -RA SCT020 BKN040 PROB30 TEMPO 2100/2118 4000 RADZ BKN012

Aktuella väderrapporter och prognoser från 4000 flygplatser (METAR- och TAF-rapporter).

De tillgängliga stationerna syns som gula och röda prickar på kartan.

För musen över prickarna för att se namnen på stationerna.

Klicka sedan för att få väderrapporter och prognoser.

För att ändra kartan: Klicka på de gröna knapparna med ett svart kors på för att zooma in; den gröna knappen med ett streck på för att zooma ut; eller på de gröna pilarna för angränsande kartor.


METAR-TAF: